Flight Track Log - Related Links

Times and Time Zones

All times are in EST time to prevent confusion due to time zone crossing. See the N27XP flight status page for this flight to view local times or setup timezone preferences in your user account.

Time Position Orientation Groundspeed Altitude Reporting Facility
EST Latitude Longitude Course Direction KTS MPH feet Rate Location/Type
Tue 09:14:03 PM 38.7500 -77.5833 233° Southwest 230 265 2,000  Level Potomac TRACON
Tue 09:15:10 PM 38.7167 -77.6500 237° Southwest 246 283 5,400 3,496 Climbing Potomac TRACON
Tue 09:16:10 PM 38.6333 -77.6500 180° South 277 319 9,400 3,081 Climbing Potomac TRACON
Tue 09:17:38 PM 38.5506 -77.7261 216° Southwest 290 334 13,000 2,507 Climbing Washington Center
Tue 09:18:36 PM 38.4806 -77.7825 212° Southwest 295 339 15,500 2,250 Climbing Washington Center
Tue 09:19:00 PM 38.3150 -77.7434 233° Southwest  Level Estimated
Tue 09:19:38 PM 38.4086 -77.8386 211° Southwest 306 352 17,500  Level Washington Center
Tue 09:20:36 PM 38.3389 -77.8975 214° Southwest 311 358 18,600 1,271 Climbing Washington Center
Tue 09:21:36 PM 38.2625 -77.9583 212° Southwest 311 358 20,000 1,388 Climbing Washington Center
Tue 09:22:37 PM 38.1883 -78.0169 212° Southwest 311 358 21,400 1,328 Climbing Washington Center
Tue 09:23:38 PM 38.1142 -78.0753 212° Southwest 316 364 22,700 1,190 Climbing Washington Center
Tue 09:24:38 PM 38.0400 -78.1361 213° Southwest 316 364 23,800 661 Climbing Washington Center
Tue 09:25:36 PM 37.9511 -78.1989 209° Southwest 327 376 24,000 102 Climbing Washington Center
Tue 09:26:36 PM 37.8578 -78.2614 208° Southwest 353 406 24,000  Level Washington Center
Tue 09:27:37 PM 37.7625 -78.3236 207° Southwest 376 433 24,000  Level Washington Center
Tue 09:28:37 PM 37.6675 -78.3833 206° Southwest 383 441 24,000 -202 Level Washington Center
Tue 09:29:36 PM 37.5722 -78.4428 206° Southwest 383 441 23,600 -655 Descending Washington Center
Tue 09:30:36 PM 37.4767 -78.5044 207° Southwest 383 441 22,700 -787 Descending Washington Center
Tue 09:31:38 PM 37.3919 -78.5589 207° Southwest 388 447 22,000 -353 Descending Washington Center
Tue 09:32:35 PM 37.2986 -78.6203 208° Southwest 388 447 22,000  Level Washington Center
Tue 09:33:37 PM 37.2075 -78.6794 207° Southwest 383 441 22,000  Level Washington Center
Tue 09:34:37 PM 37.1042 -78.7194 197° South 383 441 22,000 -252 Level Washington Center
Tue 09:35:36 PM 36.9989 -78.7569 196° South 389 448 21,500 -1,008 Descending Washington Center
Tue 09:36:36 PM 36.8958 -78.7917 195° South 389 448 20,000 -1,500 Descending Washington Center
Tue 09:37:36 PM 36.7925 -78.8261 195° South 389 448 18,500 -1,000 Descending Washington Center
Tue 09:38:36 PM 36.6775 -78.8422 186° South 384 442 18,000 -248 Descending Washington Center
Tue 09:39:37 PM 36.5814 -78.8408 179° South 377 434 18,000  Level Washington Center
Tue 09:40:38 PM 36.4692 -78.8308 176° South 391 450 18,000  Level Washington Center
Tue 09:41:36 PM 36.3483 -78.8181 175° South 404 465 18,000 -407 Level Washington Center
Tue 09:42:36 PM 36.2358 -78.8108 177° South 404 465 17,200 -984 Descending Washington Center
Tue 09:43:38 PM 36.1525 -78.8050 177° South 397 457 16,000 -1,400 Descending Washington Center
Tue 09:44:36 PM 36.0358 -78.8003 178° South 391 450 14,400 -1,705 Descending Washington Center
Tue 09:45:06 PM 35.9692 -78.7950 176° South 377 434 13,500 -1,377 Descending Washington Center
Tue 09:45:37 PM 35.9297 -78.7908 175° South 386 444 13,000 -545 Descending Washington Center
Tue 09:46:01 PM 35.8858 -78.7889 178° South 373 429 13,000  Level Washington Center
Tue 09:46:36 PM 35.8311 -78.8072 195° South 379 436 13,000  Level Washington Center
Tue 09:47:06 PM 35.7842 -78.8489 216° Southwest 343 395 13,000  Level Washington Center
Tue 09:47:36 PM 35.7603 -78.8786 225° Southwest 340 391 13,000 -716 Level Washington Center
Tue 09:48:13 PM 35.7069 -78.9275 217° Southwest 307 353 12,200 -1,258 Descending Washington Center
Tue 09:48:38 PM 35.6919 -78.9447 223° Southwest 327 376 11,700 -1,807 Descending Washington Center
Tue 09:49:36 PM 35.6294 -79.0061 219° Southwest 315 362 9,700 -2,100 Descending Washington Center
Tue 09:50:38 PM 35.5739 -79.0600 218° Southwest 286 329 7,500 -2,200 Descending Washington Center
Tue 09:51:36 PM 35.5139 -79.1133 216° Southwest 275 316 5,300 -1,261 Descending Washington Center
Tue 09:52:37 PM 35.4492 -79.1769 219° Southwest 275 316 5,000 -150 Descending Washington Center
Tue 09:53:36 PM 35.3892 -79.2303 216° Southwest 275 316 5,000  Level Washington Center
Tue 09:54:38 PM 35.3311 -79.2861 218° Southwest 275 316 5,000  Level Washington Center

Login

Don't have an account? Register now (free) for customized features, flight alerts, and more!